首页
METAR-TAF:

METAR-TAF

机场 :

Belleville, 伊利诺伊州, 美国

纬度: 38-33N, 经度: 089-51W, 海拔: 140米

当前天气观测

该预报发布于28分钟前的23:56 UTC
风速13节,风向西北,有时为22节阵风
温度 7°C
湿度 87%
气压 1008 hPa
能見度: 16.1公里
散云层高于900英尺
阴天层高于1200英尺

METAR: KBLV 092356Z 31013G22KT 10SM SCT009 OVC012 07/05 A2978 RMK AO2A PK WND 31030/14 CIG 009V012 SLP089 P0000 60000 T00690052 10129 20069 52054 $

时间: 18:24 (00:24 UTC)

预报

该预报发布于24分钟前的00:00 UTC
预报有效从10日的 00点(UTC)到 11日的 06点(UTC)
风速15节,风向西转西北,有时为25节阵风
能见度10公里或以上
阴天层高于1500英尺
成为
从 10日的 03点(UTC)到 10日的 04点(UTC)
风速15节,风向西转西北,有时为25节阵风
能见度10公里或以上
散云层高于1500英尺
多云层高于2500英尺
阴天层高于20000英尺
成为
从 10日的 05点(UTC)到 10日的 06点(UTC)
风速15节,风向西转西北,有时为25节阵风
能见度10公里或以上
少量云层高于20000英尺
成为
从 10日的 12点(UTC)到 10日的 13点(UTC)
风速10节,风向西北,有时为15节阵风
能见度10公里或以上
少量云层高于20000英尺
成为
从 10日的 15点(UTC)到 10日的 16点(UTC)
风速9节,风向西北
能见度10公里或以上
少量云层高于20000英尺

TAF: KBLV 100000Z 1000/1106 30015G25KT 9999 OVC015 QNH2977INS BECMG 1003/1004 30015G25KT 9999 SCT015 BKN025 OVC200 QNH2992INS BECMG 1005/1006 30015G25KT 9999 FEW200 QNH3002INS BECMG 1012/1013 32010G15KT 9999 FEW200 QNH3018INS BECMG 1015/1016 32009KT 9999 FEW200 QNH3032INS TX07/1000Z TNM03/1011Z

超过4000个机场的气象观测和天气预报(METAR&TAF报告)。

可查询的气象台以黄色和红色小点在地图上表示。

将鼠标移到小点上方,可查看气象台名称。

然后点击查看天气观测和预报。

如需切换地图:点击带黑十字的绿色按钮放大地图;点击带横线的绿色按钮缩小地图;或者点击绿色箭头查看邻近地区的地图。


METAR-TAF: